sensor_id;sensor_type;location;lat;lon;timestamp;P1;durP1;ratioP1;P2;durP2;ratioP2
6840;SDS011;3458;53.678;14.080;2023-02-28T00:00:51;17.00;;;8.40;;
6840;SDS011;3458;53.678;14.080;2023-02-28T00:03:16;13.13;;;7.13;;
6840;SDS011;3458;53.678;14.080;2023-02-28T00:05:42;10.37;;;6.30;;
6840;SDS011;3458;53.678;14.080;2023-02-28T00:08:08;13.40;;;6.93;;
6840;SDS011;3458;53.678;14.080;2023-02-28T00:10:33;11.07;;;5.70;;
6840;SDS011;3458;53.678;14.080;2023-02-28T00:13:00;11.73;;;5.93;;
6840;SDS011;3458;53.678;14.080;2023-02-28T00:15:31;7.60;;;5.10;;
6840;SDS011;3458;53.678;14.080;2023-02-28T00:17:57;13.27;;;4.93;;
6840;SDS011;3458;53.678;14.080;2023-02-28T00:20:23;6.97;;;5.00;;
6840;SDS011;3458;53.678;14.080;2023-02-28T00:22:49;7.27;;;4.60;;
6840;SDS011;3458;53.678;14.080;2023-02-28T00:25:17;8.87;;;4.80;;
6840;SDS011;3458;53.678;14.080;2023-02-28T00:27:44;6.50;;;3.57;;
6840;SDS011;3458;53.678;14.080;2023-02-28T00:30:12;11.53;;;4.67;;
6840;SDS011;3458;53.678;14.080;2023-02-28T00:32:39;10.40;;;4.53;;
6840;SDS011;3458;53.678;14.080;2023-02-28T00:35:05;6.67;;;4.27;;
6840;SDS011;3458;53.678;14.080;2023-02-28T00:37:31;7.53;;;4.00;;
6840;SDS011;3458;53.678;14.080;2023-02-28T00:39:57;6.27;;;4.00;;
6840;SDS011;3458;53.678;14.080;2023-02-28T00:42:23;6.93;;;4.20;;
6840;SDS011;3458;53.678;14.080;2023-02-28T00:44:49;7.23;;;3.57;;
6840;SDS011;3458;53.678;14.080;2023-02-28T00:47:15;5.93;;;4.10;;
6840;SDS011;3458;53.678;14.080;2023-02-28T00:49:40;6.23;;;3.70;;
6840;SDS011;3458;53.678;14.080;2023-02-28T00:52:06;8.77;;;3.80;;
6840;SDS011;3458;53.678;14.080;2023-02-28T00:54:31;5.17;;;3.70;;
6840;SDS011;3458;53.678;14.080;2023-02-28T00:56:57;5.90;;;3.57;;
6840;SDS011;3458;53.678;14.080;2023-02-28T00:59:23;5.17;;;4.07;;
6840;SDS011;3458;53.678;14.080;2023-02-28T01:01:48;6.57;;;3.77;;
6840;SDS011;3458;53.678;14.080;2023-02-28T01:04:14;5.50;;;3.70;;
6840;SDS011;3458;53.678;14.080;2023-02-28T01:06:40;7.80;;;4.10;;
6840;SDS011;3458;53.678;14.080;2023-02-28T01:09:06;5.83;;;4.07;;
6840;SDS011;3458;53.678;14.080;2023-02-28T01:11:32;9.43;;;5.00;;
6840;SDS011;3458;53.678;14.080;2023-02-28T01:13:59;8.00;;;3.47;;
6840;SDS011;3458;53.678;14.080;2023-02-28T01:16:25;4.93;;;3.63;;
6840;SDS011;3458;53.678;14.080;2023-02-28T01:18:51;3.77;;;2.70;;
6840;SDS011;3458;53.678;14.080;2023-02-28T01:21:17;6.50;;;4.10;;
6840;SDS011;3458;53.678;14.080;2023-02-28T01:23:44;5.63;;;3.97;;
6840;SDS011;3458;53.678;14.080;2023-02-28T01:26:12;5.93;;;3.73;;
6840;SDS011;3458;53.678;14.080;2023-02-28T01:28:39;6.20;;;3.40;;
6840;SDS011;3458;53.678;14.080;2023-02-28T01:31:05;4.53;;;3.10;;
6840;SDS011;3458;53.678;14.080;2023-02-28T01:33:31;4.03;;;3.30;;
6840;SDS011;3458;53.678;14.080;2023-02-28T01:36:04;5.77;;;3.47;;
6840;SDS011;3458;53.678;14.080;2023-02-28T01:38:31;6.30;;;3.60;;
6840;SDS011;3458;53.678;14.080;2023-02-28T01:40:57;5.70;;;4.13;;
6840;SDS011;3458;53.678;14.080;2023-02-28T01:43:30;6.60;;;4.30;;
6840;SDS011;3458;53.678;14.080;2023-02-28T01:46:16;4.03;;;3.20;;
6840;SDS011;3458;53.678;14.080;2023-02-28T01:48:51;7.03;;;3.30;;
6840;SDS011;3458;53.678;14.080;2023-02-28T01:52:03;5.60;;;3.53;;
6840;SDS011;3458;53.678;14.080;2023-02-28T01:54:18;5.40;;;3.90;;
6840;SDS011;3458;53.678;14.080;2023-02-28T01:56:48;10.90;;;3.90;;
6840;SDS011;3458;53.678;14.080;2023-02-28T01:59:27;6.10;;;3.93;;
6840;SDS011;3458;53.678;14.080;2023-02-28T02:01:58;6.27;;;3.63;;
6840;SDS011;3458;53.678;14.080;2023-02-28T02:04:25;4.70;;;3.57;;
6840;SDS011;3458;53.678;14.080;2023-02-28T02:06:57;8.57;;;4.30;;
6840;SDS011;3458;53.678;14.080;2023-02-28T02:09:24;4.93;;;3.53;;
6840;SDS011;3458;53.678;14.080;2023-02-28T02:11:49;8.30;;;3.90;;
6840;SDS011;3458;53.678;14.080;2023-02-28T02:14:22;3.30;;;3.00;;
6840;SDS011;3458;53.678;14.080;2023-02-28T02:17:34;6.23;;;3.20;;
6840;SDS011;3458;53.678;14.080;2023-02-28T02:20:15;6.40;;;3.80;;
6840;SDS011;3458;53.678;14.080;2023-02-28T02:34:26;26.47;;;11.37;;
6840;SDS011;3458;53.678;14.080;2023-02-28T02:39:53;36.60;;;13.63;;
6840;SDS011;3458;53.678;14.080;2023-02-28T02:42:40;19.83;;;9.83;;
6840;SDS011;3458;53.678;14.080;2023-02-28T02:48:03;13.93;;;8.30;;
6840;SDS011;3458;53.678;14.080;2023-02-28T02:50:36;29.27;;;15.50;;
6840;SDS011;3458;53.678;14.080;2023-02-28T02:53:07;32.33;;;15.27;;
6840;SDS011;3458;53.678;14.080;2023-02-28T02:55:36;26.97;;;12.93;;
6840;SDS011;3458;53.678;14.080;2023-02-28T02:58:05;27.40;;;11.37;;
6840;SDS011;3458;53.678;14.080;2023-02-28T03:00:38;19.60;;;10.27;;
6840;SDS011;3458;53.678;14.080;2023-02-28T03:03:08;23.77;;;13.07;;
6840;SDS011;3458;53.678;14.080;2023-02-28T03:05:42;20.57;;;11.23;;
6840;SDS011;3458;53.678;14.080;2023-02-28T03:08:11;12.77;;;7.50;;
6840;SDS011;3458;53.678;14.080;2023-02-28T03:10:38;9.50;;;5.80;;
6840;SDS011;3458;53.678;14.080;2023-02-28T03:13:11;10.10;;;5.27;;
6840;SDS011;3458;53.678;14.080;2023-02-28T03:15:53;9.27;;;5.83;;
6840;SDS011;3458;53.678;14.080;2023-02-28T03:18:32;10.30;;;5.93;;
6840;SDS011;3458;53.678;14.080;2023-02-28T03:21:23;9.70;;;4.57;;
6840;SDS011;3458;53.678;14.080;2023-02-28T03:24:07;16.33;;;3.87;;
6840;SDS011;3458;53.678;14.080;2023-02-28T03:26:43;7.37;;;4.60;;
6840;SDS011;3458;53.678;14.080;2023-02-28T03:29:16;6.00;;;3.90;;
6840;SDS011;3458;53.678;14.080;2023-02-28T03:31:50;7.27;;;4.40;;
6840;SDS011;3458;53.678;14.080;2023-02-28T03:34:33;6.10;;;4.47;;
6840;SDS011;3458;53.678;14.080;2023-02-28T03:37:04;8.20;;;4.63;;
6840;SDS011;3458;53.678;14.080;2023-02-28T03:39:37;5.90;;;4.77;;
6840;SDS011;3458;53.678;14.080;2023-02-28T03:42:09;5.93;;;4.03;;
6840;SDS011;3458;53.678;14.080;2023-02-28T03:44:41;9.73;;;4.43;;
6840;SDS011;3458;53.678;14.080;2023-02-28T03:47:14;15.87;;;4.67;;
6840;SDS011;3458;53.678;14.080;2023-02-28T03:49:52;20.90;;;7.20;;
6840;SDS011;3458;53.678;14.080;2023-02-28T03:52:19;44.40;;;10.20;;
6840;SDS011;3458;53.678;14.080;2023-02-28T03:54:49;20.17;;;6.07;;
6840;SDS011;3458;53.678;14.080;2023-02-28T03:57:22;16.63;;;5.50;;
6840;SDS011;3458;53.678;14.080;2023-02-28T03:59:59;13.30;;;5.00;;
6840;SDS011;3458;53.678;14.080;2023-02-28T04:02:31;11.43;;;4.97;;
6840;SDS011;3458;53.678;14.080;2023-02-28T04:04:57;17.07;;;5.50;;
6840;SDS011;3458;53.678;14.080;2023-02-28T04:07:23;9.93;;;4.40;;
6840;SDS011;3458;53.678;14.080;2023-02-28T04:09:48;7.17;;;4.07;;
6840;SDS011;3458;53.678;14.080;2023-02-28T04:12:14;5.67;;;4.40;;
6840;SDS011;3458;53.678;14.080;2023-02-28T04:14:39;6.10;;;4.20;;
6840;SDS011;3458;53.678;14.080;2023-02-28T04:17:05;6.37;;;3.90;;
6840;SDS011;3458;53.678;14.080;2023-02-28T04:19:30;11.20;;;5.30;;
6840;SDS011;3458;53.678;14.080;2023-02-28T04:21:56;7.10;;;3.97;;
6840;SDS011;3458;53.678;14.080;2023-02-28T04:24:23;7.30;;;4.30;;
6840;SDS011;3458;53.678;14.080;2023-02-28T04:26:51;4.73;;;3.80;;
6840;SDS011;3458;53.678;14.080;2023-02-28T04:29:19;12.13;;;4.20;;
6840;SDS011;3458;53.678;14.080;2023-02-28T04:31:46;6.27;;;3.67;;
6840;SDS011;3458;53.678;14.080;2023-02-28T04:34:12;7.53;;;4.10;;
6840;SDS011;3458;53.678;14.080;2023-02-28T04:36:38;6.33;;;4.00;;
6840;SDS011;3458;53.678;14.080;2023-02-28T04:39:03;8.10;;;3.37;;
6840;SDS011;3458;53.678;14.080;2023-02-28T04:41:29;4.20;;;3.67;;
6840;SDS011;3458;53.678;14.080;2023-02-28T04:43:55;5.20;;;3.57;;
6840;SDS011;3458;53.678;14.080;2023-02-28T04:46:21;7.70;;;3.60;;
6840;SDS011;3458;53.678;14.080;2023-02-28T04:48:47;7.43;;;4.00;;
6840;SDS011;3458;53.678;14.080;2023-02-28T04:51:13;6.20;;;3.67;;
6840;SDS011;3458;53.678;14.080;2023-02-28T04:53:40;6.93;;;4.10;;
6840;SDS011;3458;53.678;14.080;2023-02-28T04:56:07;11.93;;;3.60;;
6840;SDS011;3458;53.678;14.080;2023-02-28T04:58:35;4.10;;;3.37;;
6840;SDS011;3458;53.678;14.080;2023-02-28T05:01:01;9.83;;;4.07;;
6840;SDS011;3458;53.678;14.080;2023-02-28T05:03:28;7.83;;;4.50;;
6840;SDS011;3458;53.678;14.080;2023-02-28T05:05:53;7.97;;;4.63;;
6840;SDS011;3458;53.678;14.080;2023-02-28T05:08:19;6.07;;;3.50;;
6840;SDS011;3458;53.678;14.080;2023-02-28T05:10:44;7.40;;;3.90;;
6840;SDS011;3458;53.678;14.080;2023-02-28T05:13:13;7.60;;;4.07;;
6840;SDS011;3458;53.678;14.080;2023-02-28T05:15:38;6.47;;;3.90;;
6840;SDS011;3458;53.678;14.080;2023-02-28T05:18:04;5.17;;;3.87;;
6840;SDS011;3458;53.678;14.080;2023-02-28T05:20:29;6.50;;;3.53;;
6840;SDS011;3458;53.678;14.080;2023-02-28T05:22:55;8.23;;;4.37;;
6840;SDS011;3458;53.678;14.080;2023-02-28T05:25:22;9.40;;;4.17;;
6840;SDS011;3458;53.678;14.080;2023-02-28T05:27:48;9.87;;;4.60;;
6840;SDS011;3458;53.678;14.080;2023-02-28T05:30:13;7.30;;;3.77;;
6840;SDS011;3458;53.678;14.080;2023-02-28T05:32:40;9.20;;;4.53;;
6840;SDS011;3458;53.678;14.080;2023-02-28T05:35:09;5.43;;;3.70;;
6840;SDS011;3458;53.678;14.080;2023-02-28T05:37:36;5.40;;;3.37;;
6840;SDS011;3458;53.678;14.080;2023-02-28T05:40:02;5.47;;;3.40;;
6840;SDS011;3458;53.678;14.080;2023-02-28T05:42:35;5.03;;;3.50;;
6840;SDS011;3458;53.678;14.080;2023-02-28T05:45:00;5.17;;;3.20;;
6840;SDS011;3458;53.678;14.080;2023-02-28T05:47:26;5.90;;;3.43;;
6840;SDS011;3458;53.678;14.080;2023-02-28T05:49:51;5.87;;;3.10;;
6840;SDS011;3458;53.678;14.080;2023-02-28T05:52:17;3.73;;;2.90;;
6840;SDS011;3458;53.678;14.080;2023-02-28T05:54:42;3.70;;;2.90;;
6840;SDS011;3458;53.678;14.080;2023-02-28T05:57:08;3.83;;;3.10;;
6840;SDS011;3458;53.678;14.080;2023-02-28T05:59:33;5.30;;;3.43;;
6840;SDS011;3458;53.678;14.080;2023-02-28T06:01:59;4.33;;;2.87;;
6840;SDS011;3458;53.678;14.080;2023-02-28T06:04:24;4.67;;;4.10;;
6840;SDS011;3458;53.678;14.080;2023-02-28T06:06:50;9.00;;;3.90;;
6840;SDS011;3458;53.678;14.080;2023-02-28T06:09:16;5.20;;;3.63;;
6840;SDS011;3458;53.678;14.080;2023-02-28T06:11:42;7.73;;;4.00;;
6840;SDS011;3458;53.678;14.080;2023-02-28T06:14:13;8.10;;;4.07;;
6840;SDS011;3458;53.678;14.080;2023-02-28T06:16:41;5.10;;;3.10;;
6840;SDS011;3458;53.678;14.080;2023-02-28T06:19:06;5.60;;;3.90;;
6840;SDS011;3458;53.678;14.080;2023-02-28T06:21:32;7.23;;;5.07;;
6840;SDS011;3458;53.678;14.080;2023-02-28T06:23:57;10.10;;;4.97;;
6840;SDS011;3458;53.678;14.080;2023-02-28T06:26:25;10.83;;;5.57;;
6840;SDS011;3458;53.678;14.080;2023-02-28T06:28:51;12.00;;;6.27;;
6840;SDS011;3458;53.678;14.080;2023-02-28T06:31:17;10.20;;;5.67;;
6840;SDS011;3458;53.678;14.080;2023-02-28T06:33:43;10.63;;;5.27;;
6840;SDS011;3458;53.678;14.080;2023-02-28T06:36:10;8.07;;;4.70;;
6840;SDS011;3458;53.678;14.080;2023-02-28T06:38:37;13.33;;;4.20;;
6840;SDS011;3458;53.678;14.080;2023-02-28T06:41:03;7.70;;;4.60;;
6840;SDS011;3458;53.678;14.080;2023-02-28T06:43:31;6.67;;;4.50;;
6840;SDS011;3458;53.678;14.080;2023-02-28T06:45:59;10.50;;;5.07;;
6840;SDS011;3458;53.678;14.080;2023-02-28T06:48:26;12.00;;;5.67;;
6840;SDS011;3458;53.678;14.080;2023-02-28T06:50:52;17.43;;;7.20;;
6840;SDS011;3458;53.678;14.080;2023-02-28T06:53:17;13.27;;;6.70;;
6840;SDS011;3458;53.678;14.080;2023-02-28T06:55:43;17.67;;;10.03;;
6840;SDS011;3458;53.678;14.080;2023-02-28T06:58:09;34.40;;;15.43;;
6840;SDS011;3458;53.678;14.080;2023-02-28T07:00:43;18.10;;;9.10;;
6840;SDS011;3458;53.678;14.080;2023-02-28T07:03:10;10.53;;;5.17;;
6840;SDS011;3458;53.678;14.080;2023-02-28T07:05:39;5.13;;;3.20;;
6840;SDS011;3458;53.678;14.080;2023-02-28T07:08:05;6.53;;;3.53;;
6840;SDS011;3458;53.678;14.080;2023-02-28T07:10:31;7.53;;;3.40;;
6840;SDS011;3458;53.678;14.080;2023-02-28T07:12:57;6.60;;;3.57;;
6840;SDS011;3458;53.678;14.080;2023-02-28T07:15:23;7.73;;;4.50;;
6840;SDS011;3458;53.678;14.080;2023-02-28T07:17:49;6.70;;;3.80;;
6840;SDS011;3458;53.678;14.080;2023-02-28T07:20:15;12.47;;;5.30;;
6840;SDS011;3458;53.678;14.080;2023-02-28T07:22:40;6.17;;;4.20;;
6840;SDS011;3458;53.678;14.080;2023-02-28T07:25:06;15.97;;;4.40;;
6840;SDS011;3458;53.678;14.080;2023-02-28T07:27:32;8.30;;;4.70;;
6840;SDS011;3458;53.678;14.080;2023-02-28T07:29:59;8.37;;;4.90;;
6840;SDS011;3458;53.678;14.080;2023-02-28T07:32:26;8.97;;;4.73;;
6840;SDS011;3458;53.678;14.080;2023-02-28T07:34:52;8.20;;;4.87;;
6840;SDS011;3458;53.678;14.080;2023-02-28T07:37:18;7.63;;;5.10;;
6840;SDS011;3458;53.678;14.080;2023-02-28T07:39:43;11.70;;;5.83;;
6840;SDS011;3458;53.678;14.080;2023-02-28T07:42:09;7.80;;;4.87;;
6840;SDS011;3458;53.678;14.080;2023-02-28T07:44:36;10.60;;;5.03;;
6840;SDS011;3458;53.678;14.080;2023-02-28T07:47:06;7.97;;;4.93;;
6840;SDS011;3458;53.678;14.080;2023-02-28T07:49:33;10.80;;;5.97;;
6840;SDS011;3458;53.678;14.080;2023-02-28T07:52:00;16.03;;;6.57;;
6840;SDS011;3458;53.678;14.080;2023-02-28T07:54:25;17.90;;;9.07;;
6840;SDS011;3458;53.678;14.080;2023-02-28T07:56:51;10.40;;;5.53;;
6840;SDS011;3458;53.678;14.080;2023-02-28T07:59:16;11.83;;;6.53;;
6840;SDS011;3458;53.678;14.080;2023-02-28T08:01:42;9.40;;;4.83;;
6840;SDS011;3458;53.678;14.080;2023-02-28T08:04:09;12.87;;;6.27;;
6840;SDS011;3458;53.678;14.080;2023-02-28T08:06:35;8.70;;;5.53;;
6840;SDS011;3458;53.678;14.080;2023-02-28T08:09:00;15.00;;;5.90;;
6840;SDS011;3458;53.678;14.080;2023-02-28T08:11:26;12.50;;;4.77;;
6840;SDS011;3458;53.678;14.080;2023-02-28T08:13:51;10.73;;;5.97;;
6840;SDS011;3458;53.678;14.080;2023-02-28T08:16:17;7.83;;;5.43;;
6840;SDS011;3458;53.678;14.080;2023-02-28T08:18:46;10.70;;;4.90;;
6840;SDS011;3458;53.678;14.080;2023-02-28T08:21:16;5.80;;;4.17;;
6840;SDS011;3458;53.678;14.080;2023-02-28T08:23:42;9.13;;;4.50;;
6840;SDS011;3458;53.678;14.080;2023-02-28T08:26:07;7.87;;;4.50;;
6840;SDS011;3458;53.678;14.080;2023-02-28T08:28:33;10.77;;;4.43;;
6840;SDS011;3458;53.678;14.080;2023-02-28T08:30:58;9.33;;;4.83;;
6840;SDS011;3458;53.678;14.080;2023-02-28T08:33:25;10.80;;;5.90;;
6840;SDS011;3458;53.678;14.080;2023-02-28T08:35:52;8.83;;;4.63;;
6840;SDS011;3458;53.678;14.080;2023-02-28T08:38:21;10.20;;;4.53;;
6840;SDS011;3458;53.678;14.080;2023-02-28T08:40:47;11.90;;;4.30;;
6840;SDS011;3458;53.678;14.080;2023-02-28T08:43:12;9.53;;;4.53;;
6840;SDS011;3458;53.678;14.080;2023-02-28T08:45:38;11.30;;;5.53;;
6840;SDS011;3458;53.678;14.080;2023-02-28T08:48:04;12.87;;;5.57;;
6840;SDS011;3458;53.678;14.080;2023-02-28T08:50:30;14.30;;;5.97;;
6840;SDS011;3458;53.678;14.080;2023-02-28T08:52:55;11.83;;;4.40;;
6840;SDS011;3458;53.678;14.080;2023-02-28T08:55:20;7.93;;;4.67;;
6840;SDS011;3458;53.678;14.080;2023-02-28T08:57:47;5.90;;;4.20;;
6840;SDS011;3458;53.678;14.080;2023-02-28T09:00:12;12.17;;;4.60;;
6840;SDS011;3458;53.678;14.080;2023-02-28T09:02:38;7.13;;;3.27;;
6840;SDS011;3458;53.678;14.080;2023-02-28T09:05:05;10.70;;;4.30;;
6840;SDS011;3458;53.678;14.080;2023-02-28T09:07:31;19.30;;;7.10;;
6840;SDS011;3458;53.678;14.080;2023-02-28T09:09:56;34.37;;;6.30;;
6840;SDS011;3458;53.678;14.080;2023-02-28T09:12:26;14.67;;;5.10;;
6840;SDS011;3458;53.678;14.080;2023-02-28T09:14:52;11.53;;;5.33;;
6840;SDS011;3458;53.678;14.080;2023-02-28T09:17:18;10.43;;;3.93;;
6840;SDS011;3458;53.678;14.080;2023-02-28T09:19:45;20.60;;;6.57;;
6840;SDS011;3458;53.678;14.080;2023-02-28T09:22:14;12.90;;;4.50;;
6840;SDS011;3458;53.678;14.080;2023-02-28T09:24:40;8.43;;;4.30;;
6840;SDS011;3458;53.678;14.080;2023-02-28T09:27:05;15.47;;;7.43;;
6840;SDS011;3458;53.678;14.080;2023-02-28T09:29:31;7.53;;;4.50;;
6840;SDS011;3458;53.678;14.080;2023-02-28T09:31:58;7.70;;;3.70;;
6840;SDS011;3458;53.678;14.080;2023-02-28T09:34:25;6.30;;;3.37;;
6840;SDS011;3458;53.678;14.080;2023-02-28T09:36:51;19.33;;;8.53;;
6840;SDS011;3458;53.678;14.080;2023-02-28T09:39:19;17.53;;;6.53;;
6840;SDS011;3458;53.678;14.080;2023-02-28T09:41:47;17.53;;;6.90;;
6840;SDS011;3458;53.678;14.080;2023-02-28T09:47:07;20.10;;;5.40;;
6840;SDS011;3458;53.678;14.080;2023-02-28T09:49:44;20.47;;;6.10;;
6840;SDS011;3458;53.678;14.080;2023-02-28T09:52:14;4.90;;;2.80;;
6840;SDS011;3458;53.678;14.080;2023-02-28T09:54:44;4.87;;;2.07;;
6840;SDS011;3458;53.678;14.080;2023-02-28T10:00:07;2.97;;;2.33;;
6840;SDS011;3458;53.678;14.080;2023-02-28T10:08:27;5.80;;;2.30;;
6840;SDS011;3458;53.678;14.080;2023-02-28T10:11:00;8.63;;;4.50;;
6840;SDS011;3458;53.678;14.080;2023-02-28T10:13:50;5.73;;;2.97;;
6840;SDS011;3458;53.678;14.080;2023-02-28T10:16:24;5.30;;;2.30;;
6840;SDS011;3458;53.678;14.080;2023-02-28T10:18:56;5.30;;;1.73;;
6840;SDS011;3458;53.678;14.080;2023-02-28T10:21:30;7.70;;;1.67;;
6840;SDS011;3458;53.678;14.080;2023-02-28T10:24:25;5.43;;;2.43;;
6840;SDS011;3458;53.678;14.080;2023-02-28T10:27:01;4.27;;;1.80;;
6840;SDS011;3458;53.678;14.080;2023-02-28T10:29:42;6.27;;;2.37;;
6840;SDS011;3458;53.678;14.080;2023-02-28T10:32:10;5.20;;;2.63;;
6840;SDS011;3458;53.678;14.080;2023-02-28T10:34:43;3.57;;;2.53;;
6840;SDS011;3458;53.678;14.080;2023-02-28T10:37:09;3.43;;;2.47;;
6840;SDS011;3458;53.678;14.080;2023-02-28T10:39:44;8.03;;;3.03;;
6840;SDS011;3458;53.678;14.080;2023-02-28T10:42:26;6.77;;;2.63;;
6840;SDS011;3458;53.678;14.080;2023-02-28T10:45:04;4.73;;;2.23;;
6840;SDS011;3458;53.678;14.080;2023-02-28T10:47:30;5.53;;;2.47;;
6840;SDS011;3458;53.678;14.080;2023-02-28T10:49:58;3.90;;;2.10;;
6840;SDS011;3458;53.678;14.080;2023-02-28T10:52:33;6.37;;;2.57;;
6840;SDS011;3458;53.678;14.080;2023-02-28T10:55:19;3.93;;;2.13;;
6840;SDS011;3458;53.678;14.080;2023-02-28T10:57:47;3.83;;;2.43;;
6840;SDS011;3458;53.678;14.080;2023-02-28T11:00:14;9.80;;;4.90;;
6840;SDS011;3458;53.678;14.080;2023-02-28T11:02:46;7.60;;;2.27;;
6840;SDS011;3458;53.678;14.080;2023-02-28T11:07:53;4.53;;;1.80;;
6840;SDS011;3458;53.678;14.080;2023-02-28T11:10:20;9.20;;;2.03;;
6840;SDS011;3458;53.678;14.080;2023-02-28T11:12:48;3.80;;;1.90;;
6840;SDS011;3458;53.678;14.080;2023-02-28T11:17:52;4.20;;;1.50;;
6840;SDS011;3458;53.678;14.080;2023-02-28T11:20:24;4.77;;;2.57;;
6840;SDS011;3458;53.678;14.080;2023-02-28T11:22:52;4.23;;;2.10;;
6840;SDS011;3458;53.678;14.080;2023-02-28T11:25:23;4.70;;;1.80;;
6840;SDS011;3458;53.678;14.080;2023-02-28T11:27:58;4.10;;;1.83;;
6840;SDS011;3458;53.678;14.080;2023-02-28T11:30:40;3.00;;;2.03;;
6840;SDS011;3458;53.678;14.080;2023-02-28T11:33:22;4.40;;;2.17;;
6840;SDS011;3458;53.678;14.080;2023-02-28T11:35:55;4.60;;;2.00;;
6840;SDS011;3458;53.678;14.080;2023-02-28T11:38:24;2.50;;;1.80;;
6840;SDS011;3458;53.678;14.080;2023-02-28T11:40:59;7.30;;;2.23;;
6840;SDS011;3458;53.678;14.080;2023-02-28T11:46:26;2.77;;;1.60;;
6840;SDS011;3458;53.678;14.080;2023-02-28T11:51:59;5.23;;;1.80;;
6840;SDS011;3458;53.678;14.080;2023-02-28T11:57:36;2.40;;;1.40;;
6840;SDS011;3458;53.678;14.080;2023-02-28T12:00:30;12.13;;;3.53;;
6840;SDS011;3458;53.678;14.080;2023-02-28T12:03:26;17.00;;;6.60;;
6840;SDS011;3458;53.678;14.080;2023-02-28T12:11:36;4.70;;;1.70;;
6840;SDS011;3458;53.678;14.080;2023-02-28T12:17:18;2.60;;;1.73;;
6840;SDS011;3458;53.678;14.080;2023-02-28T12:28:52;4.40;;;2.37;;
6840;SDS011;3458;53.678;14.080;2023-02-28T12:31:26;3.43;;;1.90;;
6840;SDS011;3458;53.678;14.080;2023-02-28T12:34:02;2.93;;;1.93;;
6840;SDS011;3458;53.678;14.080;2023-02-28T12:36:31;3.80;;;1.63;;
6840;SDS011;3458;53.678;14.080;2023-02-28T12:44:27;4.33;;;2.10;;
6840;SDS011;3458;53.678;14.080;2023-02-28T12:47:03;5.73;;;1.47;;
6840;SDS011;3458;53.678;14.080;2023-02-28T12:49:38;4.43;;;1.60;;
6840;SDS011;3458;53.678;14.080;2023-02-28T12:52:11;2.50;;;1.57;;
6840;SDS011;3458;53.678;14.080;2023-02-28T12:54:46;4.40;;;2.30;;
6840;SDS011;3458;53.678;14.080;2023-02-28T12:57:19;2.80;;;1.60;;
6840;SDS011;3458;53.678;14.080;2023-02-28T12:59:55;6.73;;;1.80;;
6840;SDS011;3458;53.678;14.080;2023-02-28T13:04:55;7.50;;;1.80;;
6840;SDS011;3458;53.678;14.080;2023-02-28T13:07:49;5.03;;;1.87;;
6840;SDS011;3458;53.678;14.080;2023-02-28T13:10:42;7.57;;;3.27;;
6840;SDS011;3458;53.678;14.080;2023-02-28T13:13:13;5.40;;;2.20;;
6840;SDS011;3458;53.678;14.080;2023-02-28T13:18:39;3.07;;;1.40;;
6840;SDS011;3458;53.678;14.080;2023-02-28T13:21:10;4.43;;;1.97;;
6840;SDS011;3458;53.678;14.080;2023-02-28T13:26:21;8.70;;;1.40;;
6840;SDS011;3458;53.678;14.080;2023-02-28T13:29:04;2.97;;;1.50;;
6840;SDS011;3458;53.678;14.080;2023-02-28T13:32:37;6.10;;;1.60;;
6840;SDS011;3458;53.678;14.080;2023-02-28T13:34:38;2.47;;;1.80;;
6840;SDS011;3458;53.678;14.080;2023-02-28T13:47:41;3.50;;;1.57;;
6840;SDS011;3458;53.678;14.080;2023-02-28T13:50:20;3.67;;;2.10;;
6840;SDS011;3458;53.678;14.080;2023-02-28T13:55:29;3.27;;;2.37;;
6840;SDS011;3458;53.678;14.080;2023-02-28T14:04:09;6.57;;;2.17;;
6840;SDS011;3458;53.678;14.080;2023-02-28T14:06:50;2.80;;;2.00;;
6840;SDS011;3458;53.678;14.080;2023-02-28T14:09:23;3.70;;;1.87;;
6840;SDS011;3458;53.678;14.080;2023-02-28T14:11:56;6.03;;;2.50;;
6840;SDS011;3458;53.678;14.080;2023-02-28T14:17:01;16.77;;;2.70;;
6840;SDS011;3458;53.678;14.080;2023-02-28T14:19:38;5.57;;;2.30;;
6840;SDS011;3458;53.678;14.080;2023-02-28T14:25:16;6.27;;;1.90;;
6840;SDS011;3458;53.678;14.080;2023-02-28T14:27:48;3.90;;;2.37;;
6840;SDS011;3458;53.678;14.080;2023-02-28T14:30:40;5.20;;;2.20;;
6840;SDS011;3458;53.678;14.080;2023-02-28T14:36:04;5.77;;;2.00;;
6840;SDS011;3458;53.678;14.080;2023-02-28T14:38:43;3.20;;;2.10;;
6840;SDS011;3458;53.678;14.080;2023-02-28T14:41:22;15.53;;;2.00;;
6840;SDS011;3458;53.678;14.080;2023-02-28T14:43:53;6.20;;;2.20;;
6840;SDS011;3458;53.678;14.080;2023-02-28T14:46:25;6.83;;;1.87;;
6840;SDS011;3458;53.678;14.080;2023-02-28T14:49:00;5.47;;;1.90;;
6840;SDS011;3458;53.678;14.080;2023-02-28T14:51:26;4.43;;;2.43;;
6840;SDS011;3458;53.678;14.080;2023-02-28T14:53:56;5.40;;;2.47;;
6840;SDS011;3458;53.678;14.080;2023-02-28T14:56:26;5.30;;;2.00;;
6840;SDS011;3458;53.678;14.080;2023-02-28T14:58:57;4.93;;;2.07;;
6840;SDS011;3458;53.678;14.080;2023-02-28T15:01:24;3.47;;;1.63;;
6840;SDS011;3458;53.678;14.080;2023-02-28T15:03:58;3.77;;;2.30;;
6840;SDS011;3458;53.678;14.080;2023-02-28T15:06:26;5.40;;;2.17;;
6840;SDS011;3458;53.678;14.080;2023-02-28T15:11:54;3.53;;;1.90;;
6840;SDS011;3458;53.678;14.080;2023-02-28T15:14:20;2.60;;;2.23;;
6840;SDS011;3458;53.678;14.080;2023-02-28T15:16:49;4.40;;;2.30;;
6840;SDS011;3458;53.678;14.080;2023-02-28T15:19:29;3.47;;;2.30;;
6840;SDS011;3458;53.678;14.080;2023-02-28T15:21:58;3.90;;;2.00;;
6840;SDS011;3458;53.678;14.080;2023-02-28T15:24:34;2.50;;;2.03;;
6840;SDS011;3458;53.678;14.080;2023-02-28T15:27:09;5.90;;;1.93;;
6840;SDS011;3458;53.678;14.080;2023-02-28T15:29:45;3.50;;;2.20;;
6840;SDS011;3458;53.678;14.080;2023-02-28T15:32:28;6.30;;;2.00;;
6840;SDS011;3458;53.678;14.080;2023-02-28T15:34:56;2.60;;;2.13;;
6840;SDS011;3458;53.678;14.080;2023-02-28T15:39:58;4.03;;;2.10;;
6840;SDS011;3458;53.678;14.080;2023-02-28T15:48:51;4.40;;;2.03;;
6840;SDS011;3458;53.678;14.080;2023-02-28T15:54:04;5.27;;;1.80;;
6840;SDS011;3458;53.678;14.080;2023-02-28T15:56:33;4.30;;;2.00;;
6840;SDS011;3458;53.678;14.080;2023-02-28T15:59:14;5.43;;;2.63;;
6840;SDS011;3458;53.678;14.080;2023-02-28T16:01:45;4.40;;;2.50;;
6840;SDS011;3458;53.678;14.080;2023-02-28T16:04:15;4.70;;;2.00;;
6840;SDS011;3458;53.678;14.080;2023-02-28T16:06:43;5.10;;;3.00;;
6840;SDS011;3458;53.678;14.080;2023-02-28T16:09:24;4.00;;;2.20;;
6840;SDS011;3458;53.678;14.080;2023-02-28T16:11:52;4.17;;;2.10;;
6840;SDS011;3458;53.678;14.080;2023-02-28T16:14:24;4.70;;;2.47;;
6840;SDS011;3458;53.678;14.080;2023-02-28T16:16:56;4.80;;;2.57;;
6840;SDS011;3458;53.678;14.080;2023-02-28T16:19:31;4.43;;;2.50;;
6840;SDS011;3458;53.678;14.080;2023-02-28T16:21:57;8.70;;;3.00;;
6840;SDS011;3458;53.678;14.080;2023-02-28T16:24:22;9.57;;;3.33;;
6840;SDS011;3458;53.678;14.080;2023-02-28T16:26:48;5.30;;;2.90;;
6840;SDS011;3458;53.678;14.080;2023-02-28T16:29:20;5.33;;;3.00;;
6840;SDS011;3458;53.678;14.080;2023-02-28T16:31:51;32.03;;;9.70;;
6840;SDS011;3458;53.678;14.080;2023-02-28T16:34:18;50.07;;;10.67;;
6840;SDS011;3458;53.678;14.080;2023-02-28T16:36:46;23.63;;;7.63;;
6840;SDS011;3458;53.678;14.080;2023-02-28T16:39:13;25.17;;;6.73;;
6840;SDS011;3458;53.678;14.080;2023-02-28T16:41:38;34.50;;;8.40;;
6840;SDS011;3458;53.678;14.080;2023-02-28T16:44:09;27.97;;;7.87;;
6840;SDS011;3458;53.678;14.080;2023-02-28T16:46:38;37.33;;;11.07;;
6840;SDS011;3458;53.678;14.080;2023-02-28T16:49:03;31.67;;;11.97;;
6840;SDS011;3458;53.678;14.080;2023-02-28T16:51:29;37.37;;;13.10;;
6840;SDS011;3458;53.678;14.080;2023-02-28T16:53:55;33.00;;;14.37;;
6840;SDS011;3458;53.678;14.080;2023-02-28T16:56:21;32.72;;;14.30;;
6840;SDS011;3458;53.678;14.080;2023-02-28T16:58:48;31.13;;;12.63;;
6840;SDS011;3458;53.678;14.080;2023-02-28T17:01:15;32.50;;;12.53;;
6840;SDS011;3458;53.678;14.080;2023-02-28T17:03:41;31.83;;;10.87;;
6840;SDS011;3458;53.678;14.080;2023-02-28T17:06:17;27.40;;;11.70;;
6840;SDS011;3458;53.678;14.080;2023-02-28T17:08:47;23.60;;;13.20;;